Marshall Army Air Field
KFRI : now visible

Airfield :











YOU CAN JOIN US ON...

 
LOGIN :

Register | Disclaimer

   EN    FR    IT 

 









Legend :    VFR   Marginal VFR   IFR   Intensive IFR   Very Intensive IFR
Visi :
Ceiling :
>= 8 km
>= 3000ft
5 to 8 km
1000 to 3000 ft
1500m to 5 km
500 to 1000 ft
800 to 1500m
200 to 500 ft
< 800m
< 200 ft
Symbols :   Thunderstorms  Fog  Heavy snow  Heavy precipitations  Wind > 20 kt






- Airport Elevation : 1065 ft


KFRI - Marshall Army Air Field

CURRENT METAR :
  • 161056Z 06003KT 6SM -RA SCT026 BKN038 06/04 A3002 RMK AO2A SLP166 P0004 T00610039

EXPIRED METARs :
  • 161041Z 03007KT 6SM -RA BKN028 06/04 A3002 RMK AO2A CIG 028V035 SLP166
  • 160956Z 03005KT 6SM -RA OVC031 07/04 A3003 RMK AO2A RAB22 SLP169 P0003 T00690042
  • 160922Z 03005KT 6SM -RA SCT043 OVC050 07/04 A3003 RMK AO2A RAB22 SLP169
  • 160856Z 03005KT 10SM OVC050 07/05 A3004 RMK AO2A RAE27DZB27E47 SLP172 P0001 60003 T00710049 58007

TAF TAF KFRI
Valid from the 16 at 05:00 until the 17 at 11:00 UTC


160500Z 1605/1711 VRB06KT 9999 BKN100 QNH3005INS
BECMG 1605/1606 VRB06KT 8000 -SHRA FEW008 OVC015 650369 QNH3001INS
BECMG 1611/1612 02010KT 8000 -RA OVC008 650529 QNH3003INS
BECMG 1702/1703 VRB06KT 8000 DZ BR BKN005 QNH3010INS TX10/1605Z TN05/1705Z
KZKC FIR / North America



MET'MAP, your aeronautical weather chart ! - Copyright ORBIFLY December 2007 - Disclaimer

ORBIFLY MET'MAP TEAM :

Programming & Development : Alexandra Zaïnal
Concept & original design : Baudouin d'Aumeries
Assistance for programming : Marc-Olivier Méhu
Technical & hardware support : Manuel Goepfert

Contact : metmap@orbifly.com




SOURCES & CREDITS :

   NOAA       Earth
Advisory